sensor_id;sensor_type;location;lat;lon;timestamp;P1;durP1;ratioP1;P2;durP2;ratioP2
16320;SDS011;8269;50.990;4.494;2022-12-18T00:00:59;100.73;;;49.00;;
16320;SDS011;8269;50.990;4.494;2022-12-18T00:03:30;101.50;;;48.90;;
16320;SDS011;8269;50.990;4.494;2022-12-18T00:05:59;99.80;;;49.73;;
16320;SDS011;8269;50.990;4.494;2022-12-18T00:08:25;102.37;;;50.53;;
16320;SDS011;8269;50.990;4.494;2022-12-18T00:10:51;106.17;;;49.60;;
16320;SDS011;8269;50.990;4.494;2022-12-18T00:13:16;107.90;;;48.40;;
16320;SDS011;8269;50.990;4.494;2022-12-18T00:15:42;101.87;;;48.47;;
16320;SDS011;8269;50.990;4.494;2022-12-18T00:18:08;101.87;;;48.60;;
16320;SDS011;8269;50.990;4.494;2022-12-18T00:20:37;95.83;;;46.03;;
16320;SDS011;8269;50.990;4.494;2022-12-18T00:23:04;92.43;;;45.97;;
16320;SDS011;8269;50.990;4.494;2022-12-18T00:25:34;100.17;;;48.90;;
16320;SDS011;8269;50.990;4.494;2022-12-18T00:28:01;96.80;;;48.07;;
16320;SDS011;8269;50.990;4.494;2022-12-18T00:30:28;90.70;;;45.30;;
16320;SDS011;8269;50.990;4.494;2022-12-18T00:32:53;88.73;;;45.93;;
16320;SDS011;8269;50.990;4.494;2022-12-18T00:35:19;98.27;;;47.50;;
16320;SDS011;8269;50.990;4.494;2022-12-18T00:37:45;88.23;;;45.23;;
16320;SDS011;8269;50.990;4.494;2022-12-18T00:40:11;90.67;;;44.70;;
16320;SDS011;8269;50.990;4.494;2022-12-18T00:42:38;91.60;;;45.83;;
16320;SDS011;8269;50.990;4.494;2022-12-18T00:45:29;89.17;;;45.80;;
16320;SDS011;8269;50.990;4.494;2022-12-18T00:47:56;95.70;;;45.90;;
16320;SDS011;8269;50.990;4.494;2022-12-18T00:50:23;91.73;;;44.60;;
16320;SDS011;8269;50.990;4.494;2022-12-18T00:52:49;90.90;;;44.30;;
16320;SDS011;8269;50.990;4.494;2022-12-18T00:55:15;81.50;;;42.53;;
16320;SDS011;8269;50.990;4.494;2022-12-18T00:57:42;88.37;;;42.97;;
16320;SDS011;8269;50.990;4.494;2022-12-18T01:00:08;93.20;;;44.03;;
16320;SDS011;8269;50.990;4.494;2022-12-18T01:02:36;83.47;;;42.77;;
16320;SDS011;8269;50.990;4.494;2022-12-18T01:05:02;85.37;;;43.43;;
16320;SDS011;8269;50.990;4.494;2022-12-18T01:07:28;86.90;;;43.03;;
16320;SDS011;8269;50.990;4.494;2022-12-18T01:09:54;90.13;;;45.63;;
16320;SDS011;8269;50.990;4.494;2022-12-18T01:12:19;82.90;;;42.10;;
16320;SDS011;8269;50.990;4.494;2022-12-18T01:14:45;83.47;;;42.40;;
16320;SDS011;8269;50.990;4.494;2022-12-18T01:17:11;91.00;;;43.93;;
16320;SDS011;8269;50.990;4.494;2022-12-18T01:19:36;87.97;;;43.70;;
16320;SDS011;8269;50.990;4.494;2022-12-18T01:22:02;87.47;;;44.00;;
16320;SDS011;8269;50.990;4.494;2022-12-18T01:24:28;88.23;;;43.97;;
16320;SDS011;8269;50.990;4.494;2022-12-18T01:26:54;82.90;;;42.33;;
16320;SDS011;8269;50.990;4.494;2022-12-18T01:29:19;82.67;;;42.10;;
16320;SDS011;8269;50.990;4.494;2022-12-18T01:31:46;78.50;;;41.50;;
16320;SDS011;8269;50.990;4.494;2022-12-18T01:34:12;79.80;;;41.10;;
16320;SDS011;8269;50.990;4.494;2022-12-18T01:36:38;80.63;;;41.17;;
16320;SDS011;8269;50.990;4.494;2022-12-18T01:39:05;80.77;;;41.63;;
16320;SDS011;8269;50.990;4.494;2022-12-18T01:41:39;76.80;;;41.07;;
16320;SDS011;8269;50.990;4.494;2022-12-18T01:50:04;79.43;;;40.13;;
16320;SDS011;8269;50.990;4.494;2022-12-18T01:52:37;77.27;;;40.00;;
16320;SDS011;8269;50.990;4.494;2022-12-18T01:55:05;78.10;;;40.67;;
16320;SDS011;8269;50.990;4.494;2022-12-18T01:57:33;78.47;;;41.00;;
16320;SDS011;8269;50.990;4.494;2022-12-18T02:00:00;83.93;;;42.17;;
16320;SDS011;8269;50.990;4.494;2022-12-18T02:02:28;75.50;;;40.20;;
16320;SDS011;8269;50.990;4.494;2022-12-18T02:04:55;74.60;;;40.57;;
16320;SDS011;8269;50.990;4.494;2022-12-18T02:12:53;70.57;;;39.13;;
16320;SDS011;8269;50.990;4.494;2022-12-18T02:15:39;74.23;;;39.57;;
16320;SDS011;8269;50.990;4.494;2022-12-18T02:18:27;76.80;;;38.40;;
16320;SDS011;8269;50.990;4.494;2022-12-18T02:21:04;76.70;;;38.53;;
16320;SDS011;8269;50.990;4.494;2022-12-18T02:29:18;73.00;;;36.50;;
16320;SDS011;8269;50.990;4.494;2022-12-18T02:31:50;73.53;;;38.07;;
16320;SDS011;8269;50.990;4.494;2022-12-18T02:34:19;68.03;;;36.53;;
16320;SDS011;8269;50.990;4.494;2022-12-18T02:36:49;80.03;;;39.00;;
16320;SDS011;8269;50.990;4.494;2022-12-18T02:39:16;70.47;;;38.70;;
16320;SDS011;8269;50.990;4.494;2022-12-18T02:41:45;71.27;;;37.30;;
16320;SDS011;8269;50.990;4.494;2022-12-18T02:44:11;66.23;;;35.93;;
16320;SDS011;8269;50.990;4.494;2022-12-18T02:46:48;70.17;;;37.00;;
16320;SDS011;8269;50.990;4.494;2022-12-18T02:52:07;66.83;;;36.50;;
16320;SDS011;8269;50.990;4.494;2022-12-18T02:59:55;68.00;;;35.60;;
16320;SDS011;8269;50.990;4.494;2022-12-18T03:05:03;68.97;;;37.63;;
16320;SDS011;8269;50.990;4.494;2022-12-18T03:10:19;67.90;;;36.33;;
16320;SDS011;8269;50.990;4.494;2022-12-18T03:12:53;66.63;;;35.40;;
16320;SDS011;8269;50.990;4.494;2022-12-18T03:15:25;66.73;;;35.60;;
16320;SDS011;8269;50.990;4.494;2022-12-18T03:17:57;63.50;;;35.03;;
16320;SDS011;8269;50.990;4.494;2022-12-18T03:20:28;68.80;;;35.77;;
16320;SDS011;8269;50.990;4.494;2022-12-18T03:22:57;68.30;;;35.80;;
16320;SDS011;8269;50.990;4.494;2022-12-18T03:25:29;64.77;;;35.77;;
16320;SDS011;8269;50.990;4.494;2022-12-18T03:27:56;62.57;;;34.80;;
16320;SDS011;8269;50.990;4.494;2022-12-18T03:30:25;71.23;;;37.27;;
16320;SDS011;8269;50.990;4.494;2022-12-18T03:35:42;66.60;;;35.07;;
16320;SDS011;8269;50.990;4.494;2022-12-18T03:38:09;69.40;;;34.87;;
16320;SDS011;8269;50.990;4.494;2022-12-18T03:40:59;71.63;;;35.60;;
16320;SDS011;8269;50.990;4.494;2022-12-18T03:46:08;68.10;;;35.33;;
16320;SDS011;8269;50.990;4.494;2022-12-18T03:49:06;67.93;;;35.23;;
16320;SDS011;8269;50.990;4.494;2022-12-18T03:51:42;64.27;;;34.00;;
16320;SDS011;8269;50.990;4.494;2022-12-18T03:54:15;68.63;;;35.17;;
16320;SDS011;8269;50.990;4.494;2022-12-18T03:56:45;63.13;;;33.77;;
16320;SDS011;8269;50.990;4.494;2022-12-18T03:59:24;64.10;;;33.60;;
16320;SDS011;8269;50.990;4.494;2022-12-18T04:01:51;61.93;;;33.43;;
16320;SDS011;8269;50.990;4.494;2022-12-18T04:04:19;65.27;;;33.53;;
16320;SDS011;8269;50.990;4.494;2022-12-18T04:06:48;64.30;;;33.93;;
16320;SDS011;8269;50.990;4.494;2022-12-18T04:09:15;59.67;;;32.83;;
16320;SDS011;8269;50.990;4.494;2022-12-18T04:11:41;59.97;;;32.37;;
16320;SDS011;8269;50.990;4.494;2022-12-18T04:14:10;67.03;;;34.53;;
16320;SDS011;8269;50.990;4.494;2022-12-18T04:16:36;60.30;;;33.50;;
16320;SDS011;8269;50.990;4.494;2022-12-18T04:19:01;55.97;;;32.60;;
16320;SDS011;8269;50.990;4.494;2022-12-18T04:21:27;67.00;;;33.13;;
16320;SDS011;8269;50.990;4.494;2022-12-18T04:23:53;61.73;;;32.27;;
16320;SDS011;8269;50.990;4.494;2022-12-18T04:26:18;58.60;;;32.73;;
16320;SDS011;8269;50.990;4.494;2022-12-18T04:28:45;58.30;;;31.73;;
16320;SDS011;8269;50.990;4.494;2022-12-18T04:31:10;58.73;;;32.53;;
16320;SDS011;8269;50.990;4.494;2022-12-18T04:33:36;53.83;;;30.23;;
16320;SDS011;8269;50.990;4.494;2022-12-18T04:36:02;55.83;;;31.03;;
16320;SDS011;8269;50.990;4.494;2022-12-18T04:38:27;56.97;;;31.87;;
16320;SDS011;8269;50.990;4.494;2022-12-18T04:40:53;63.50;;;31.30;;
16320;SDS011;8269;50.990;4.494;2022-12-18T04:43:19;57.30;;;30.13;;
16320;SDS011;8269;50.990;4.494;2022-12-18T04:45:45;57.30;;;30.63;;
16320;SDS011;8269;50.990;4.494;2022-12-18T04:48:10;56.83;;;30.70;;
16320;SDS011;8269;50.990;4.494;2022-12-18T04:50:36;57.33;;;30.40;;
16320;SDS011;8269;50.990;4.494;2022-12-18T04:53:01;59.20;;;30.77;;
16320;SDS011;8269;50.990;4.494;2022-12-18T04:55:27;58.63;;;31.33;;
16320;SDS011;8269;50.990;4.494;2022-12-18T04:57:53;60.80;;;32.83;;
16320;SDS011;8269;50.990;4.494;2022-12-18T05:00:18;61.43;;;32.50;;
16320;SDS011;8269;50.990;4.494;2022-12-18T05:02:44;61.63;;;33.33;;
16320;SDS011;8269;50.990;4.494;2022-12-18T05:05:10;58.30;;;31.17;;
16320;SDS011;8269;50.990;4.494;2022-12-18T05:07:36;52.70;;;29.07;;
16320;SDS011;8269;50.990;4.494;2022-12-18T05:10:01;55.83;;;30.83;;
16320;SDS011;8269;50.990;4.494;2022-12-18T05:12:28;55.50;;;30.53;;
16320;SDS011;8269;50.990;4.494;2022-12-18T05:14:53;53.93;;;29.80;;
16320;SDS011;8269;50.990;4.494;2022-12-18T05:17:19;53.97;;;29.27;;
16320;SDS011;8269;50.990;4.494;2022-12-18T05:19:44;54.90;;;28.43;;
16320;SDS011;8269;50.990;4.494;2022-12-18T05:22:13;54.50;;;29.60;;
16320;SDS011;8269;50.990;4.494;2022-12-18T05:24:38;58.67;;;30.03;;
16320;SDS011;8269;50.990;4.494;2022-12-18T05:27:04;55.83;;;28.90;;
16320;SDS011;8269;50.990;4.494;2022-12-18T05:29:29;56.17;;;29.27;;
16320;SDS011;8269;50.990;4.494;2022-12-18T05:31:55;52.40;;;29.17;;
16320;SDS011;8269;50.990;4.494;2022-12-18T05:34:20;50.53;;;28.53;;
16320;SDS011;8269;50.990;4.494;2022-12-18T05:36:46;49.83;;;27.63;;
16320;SDS011;8269;50.990;4.494;2022-12-18T05:39:12;53.97;;;28.50;;
16320;SDS011;8269;50.990;4.494;2022-12-18T05:41:37;52.40;;;28.80;;
16320;SDS011;8269;50.990;4.494;2022-12-18T05:44:03;48.47;;;27.70;;
16320;SDS011;8269;50.990;4.494;2022-12-18T05:46:29;49.50;;;28.17;;
16320;SDS011;8269;50.990;4.494;2022-12-18T05:48:54;53.47;;;28.13;;
16320;SDS011;8269;50.990;4.494;2022-12-18T05:51:20;54.10;;;30.43;;
16320;SDS011;8269;50.990;4.494;2022-12-18T05:53:47;48.70;;;29.57;;
16320;SDS011;8269;50.990;4.494;2022-12-18T05:56:14;58.97;;;31.67;;
16320;SDS011;8269;50.990;4.494;2022-12-18T05:58:42;52.87;;;29.73;;
16320;SDS011;8269;50.990;4.494;2022-12-18T06:01:10;53.67;;;31.23;;
16320;SDS011;8269;50.990;4.494;2022-12-18T06:03:43;58.63;;;32.43;;
16320;SDS011;8269;50.990;4.494;2022-12-18T06:06:18;60.90;;;30.53;;
16320;SDS011;8269;50.990;4.494;2022-12-18T06:08:46;47.73;;;26.43;;
16320;SDS011;8269;50.990;4.494;2022-12-18T06:11:11;48.73;;;27.47;;
16320;SDS011;8269;50.990;4.494;2022-12-18T06:13:38;49.83;;;27.47;;
16320;SDS011;8269;50.990;4.494;2022-12-18T06:16:04;47.30;;;26.70;;
16320;SDS011;8269;50.990;4.494;2022-12-18T06:18:31;49.30;;;26.20;;
16320;SDS011;8269;50.990;4.494;2022-12-18T06:20:57;46.20;;;24.30;;
16320;SDS011;8269;50.990;4.494;2022-12-18T06:23:24;46.63;;;25.87;;
16320;SDS011;8269;50.990;4.494;2022-12-18T06:25:50;40.30;;;23.97;;
16320;SDS011;8269;50.990;4.494;2022-12-18T06:28:16;47.30;;;24.80;;
16320;SDS011;8269;50.990;4.494;2022-12-18T06:30:45;51.90;;;27.50;;
16320;SDS011;8269;50.990;4.494;2022-12-18T06:33:11;46.53;;;25.60;;
16320;SDS011;8269;50.990;4.494;2022-12-18T06:35:37;46.57;;;25.73;;
16320;SDS011;8269;50.990;4.494;2022-12-18T06:38:03;46.97;;;26.03;;
16320;SDS011;8269;50.990;4.494;2022-12-18T06:40:29;48.23;;;25.90;;
16320;SDS011;8269;50.990;4.494;2022-12-18T06:42:54;49.37;;;26.23;;
16320;SDS011;8269;50.990;4.494;2022-12-18T06:45:20;41.33;;;25.13;;
16320;SDS011;8269;50.990;4.494;2022-12-18T06:47:46;44.40;;;26.77;;
16320;SDS011;8269;50.990;4.494;2022-12-18T06:50:12;48.00;;;27.77;;
16320;SDS011;8269;50.990;4.494;2022-12-18T06:52:38;44.63;;;26.47;;
16320;SDS011;8269;50.990;4.494;2022-12-18T06:55:05;47.83;;;26.83;;
16320;SDS011;8269;50.990;4.494;2022-12-18T06:57:31;48.93;;;27.93;;
16320;SDS011;8269;50.990;4.494;2022-12-18T06:59:57;48.20;;;27.80;;
16320;SDS011;8269;50.990;4.494;2022-12-18T07:02:23;48.37;;;27.60;;
16320;SDS011;8269;50.990;4.494;2022-12-18T07:04:48;41.67;;;24.53;;
16320;SDS011;8269;50.990;4.494;2022-12-18T07:07:14;48.80;;;25.57;;
16320;SDS011;8269;50.990;4.494;2022-12-18T07:09:39;45.50;;;26.13;;
16320;SDS011;8269;50.990;4.494;2022-12-18T07:12:05;43.57;;;24.67;;
16320;SDS011;8269;50.990;4.494;2022-12-18T07:14:32;39.20;;;23.07;;
16320;SDS011;8269;50.990;4.494;2022-12-18T07:16:58;51.47;;;25.00;;
16320;SDS011;8269;50.990;4.494;2022-12-18T07:19:24;42.27;;;24.83;;
16320;SDS011;8269;50.990;4.494;2022-12-18T07:21:50;44.73;;;25.00;;
16320;SDS011;8269;50.990;4.494;2022-12-18T07:24:16;43.80;;;25.57;;
16320;SDS011;8269;50.990;4.494;2022-12-18T07:26:42;40.73;;;23.13;;
16320;SDS011;8269;50.990;4.494;2022-12-18T07:29:07;41.20;;;23.77;;
16320;SDS011;8269;50.990;4.494;2022-12-18T07:31:33;39.93;;;24.10;;
16320;SDS011;8269;50.990;4.494;2022-12-18T07:33:59;44.67;;;25.70;;
16320;SDS011;8269;50.990;4.494;2022-12-18T07:36:25;40.90;;;22.90;;
16320;SDS011;8269;50.990;4.494;2022-12-18T07:38:50;43.07;;;25.43;;
16320;SDS011;8269;50.990;4.494;2022-12-18T07:41:17;40.47;;;23.77;;
16320;SDS011;8269;50.990;4.494;2022-12-18T07:43:44;39.90;;;23.60;;
16320;SDS011;8269;50.990;4.494;2022-12-18T07:46:10;42.03;;;24.07;;
16320;SDS011;8269;50.990;4.494;2022-12-18T07:48:36;44.60;;;23.37;;
16320;SDS011;8269;50.990;4.494;2022-12-18T07:51:02;44.77;;;24.50;;
16320;SDS011;8269;50.990;4.494;2022-12-18T07:53:32;41.50;;;21.87;;
16320;SDS011;8269;50.990;4.494;2022-12-18T07:55:59;41.50;;;24.13;;
16320;SDS011;8269;50.990;4.494;2022-12-18T07:58:27;41.17;;;22.43;;
16320;SDS011;8269;50.990;4.494;2022-12-18T08:00:53;37.93;;;22.80;;
16320;SDS011;8269;50.990;4.494;2022-12-18T08:03:19;38.30;;;22.37;;
16320;SDS011;8269;50.990;4.494;2022-12-18T08:05:45;39.60;;;23.97;;
16320;SDS011;8269;50.990;4.494;2022-12-18T08:08:10;36.43;;;20.47;;
16320;SDS011;8269;50.990;4.494;2022-12-18T08:10:37;41.53;;;23.13;;
16320;SDS011;8269;50.990;4.494;2022-12-18T08:13:03;41.80;;;23.63;;
16320;SDS011;8269;50.990;4.494;2022-12-18T08:15:28;38.70;;;22.90;;
16320;SDS011;8269;50.990;4.494;2022-12-18T08:17:57;39.03;;;23.63;;
16320;SDS011;8269;50.990;4.494;2022-12-18T08:20:22;38.47;;;23.67;;
16320;SDS011;8269;50.990;4.494;2022-12-18T08:22:48;36.90;;;23.30;;
16320;SDS011;8269;50.990;4.494;2022-12-18T08:25:14;37.20;;;23.83;;
16320;SDS011;8269;50.990;4.494;2022-12-18T08:27:41;38.40;;;21.07;;
16320;SDS011;8269;50.990;4.494;2022-12-18T08:30:07;37.03;;;21.70;;
16320;SDS011;8269;50.990;4.494;2022-12-18T08:32:34;35.57;;;21.10;;
16320;SDS011;8269;50.990;4.494;2022-12-18T08:34:59;40.33;;;23.13;;
16320;SDS011;8269;50.990;4.494;2022-12-18T08:37:25;38.30;;;24.43;;
16320;SDS011;8269;50.990;4.494;2022-12-18T08:39:51;36.20;;;22.63;;
16320;SDS011;8269;50.990;4.494;2022-12-18T08:42:16;43.47;;;23.30;;
16320;SDS011;8269;50.990;4.494;2022-12-18T08:45:01;39.80;;;24.13;;
16320;SDS011;8269;50.990;4.494;2022-12-18T08:47:27;34.47;;;22.17;;
16320;SDS011;8269;50.990;4.494;2022-12-18T08:49:53;41.00;;;24.07;;
16320;SDS011;8269;50.990;4.494;2022-12-18T08:52:19;34.00;;;20.90;;
16320;SDS011;8269;50.990;4.494;2022-12-18T08:54:45;39.07;;;23.13;;
16320;SDS011;8269;50.990;4.494;2022-12-18T08:57:10;40.77;;;22.70;;
16320;SDS011;8269;50.990;4.494;2022-12-18T08:59:36;36.87;;;21.93;;
16320;SDS011;8269;50.990;4.494;2022-12-18T09:02:01;39.87;;;22.47;;
16320;SDS011;8269;50.990;4.494;2022-12-18T09:04:27;39.33;;;22.80;;
16320;SDS011;8269;50.990;4.494;2022-12-18T09:06:53;37.67;;;22.53;;
16320;SDS011;8269;50.990;4.494;2022-12-18T09:09:18;32.67;;;20.97;;
16320;SDS011;8269;50.990;4.494;2022-12-18T09:11:44;32.60;;;20.67;;
16320;SDS011;8269;50.990;4.494;2022-12-18T09:14:10;37.53;;;23.07;;
16320;SDS011;8269;50.990;4.494;2022-12-18T09:16:35;39.23;;;24.33;;
16320;SDS011;8269;50.990;4.494;2022-12-18T09:19:02;36.97;;;22.63;;
16320;SDS011;8269;50.990;4.494;2022-12-18T09:21:30;36.13;;;22.03;;
16320;SDS011;8269;50.990;4.494;2022-12-18T09:23:57;36.87;;;22.93;;
16320;SDS011;8269;50.990;4.494;2022-12-18T09:26:24;35.30;;;21.77;;
16320;SDS011;8269;50.990;4.494;2022-12-18T09:28:51;37.40;;;21.70;;
16320;SDS011;8269;50.990;4.494;2022-12-18T09:31:20;37.20;;;23.27;;
16320;SDS011;8269;50.990;4.494;2022-12-18T09:33:47;36.10;;;21.90;;
16320;SDS011;8269;50.990;4.494;2022-12-18T09:36:16;35.30;;;21.90;;
16320;SDS011;8269;50.990;4.494;2022-12-18T09:38:43;33.33;;;21.80;;
16320;SDS011;8269;50.990;4.494;2022-12-18T09:47:02;34.87;;;21.43;;
16320;SDS011;8269;50.990;4.494;2022-12-18T09:50:06;32.20;;;21.60;;
16320;SDS011;8269;50.990;4.494;2022-12-18T09:52:39;34.23;;;22.87;;
16320;SDS011;8269;50.990;4.494;2022-12-18T09:55:42;33.63;;;22.37;;
16320;SDS011;8269;50.990;4.494;2022-12-18T09:58:19;33.23;;;22.57;;
16320;SDS011;8269;50.990;4.494;2022-12-18T10:01:14;30.87;;;21.50;;
16320;SDS011;8269;50.990;4.494;2022-12-18T10:03:46;29.90;;;20.60;;
16320;SDS011;8269;50.990;4.494;2022-12-18T10:09:01;35.07;;;21.93;;
16320;SDS011;8269;50.990;4.494;2022-12-18T10:14:43;32.40;;;20.30;;
16320;SDS011;8269;50.990;4.494;2022-12-18T10:20:42;28.40;;;18.67;;
16320;SDS011;8269;50.990;4.494;2022-12-18T10:23:29;32.20;;;19.77;;
16320;SDS011;8269;50.990;4.494;2022-12-18T10:26:02;30.30;;;19.50;;
16320;SDS011;8269;50.990;4.494;2022-12-18T10:28:38;29.57;;;18.57;;
16320;SDS011;8269;50.990;4.494;2022-12-18T10:31:15;29.20;;;18.70;;
16320;SDS011;8269;50.990;4.494;2022-12-18T10:33:53;33.33;;;20.23;;
16320;SDS011;8269;50.990;4.494;2022-12-18T10:36:20;32.03;;;20.10;;
16320;SDS011;8269;50.990;4.494;2022-12-18T10:38:45;27.87;;;19.73;;
16320;SDS011;8269;50.990;4.494;2022-12-18T10:46:39;29.47;;;21.07;;
16320;SDS011;8269;50.990;4.494;2022-12-18T10:49:17;33.70;;;20.97;;
16320;SDS011;8269;50.990;4.494;2022-12-18T10:51:52;28.57;;;19.63;;
16320;SDS011;8269;50.990;4.494;2022-12-18T10:54:57;27.93;;;19.23;;
16320;SDS011;8269;50.990;4.494;2022-12-18T11:02:44;27.53;;;18.30;;
16320;SDS011;8269;50.990;4.494;2022-12-18T11:05:23;24.63;;;17.60;;
16320;SDS011;8269;50.990;4.494;2022-12-18T11:07:57;25.33;;;17.80;;
16320;SDS011;8269;50.990;4.494;2022-12-18T11:11:21;25.87;;;16.80;;
16320;SDS011;8269;50.990;4.494;2022-12-18T11:17:18;26.00;;;16.30;;
16320;SDS011;8269;50.990;4.494;2022-12-18T11:20:25;24.23;;;16.47;;
16320;SDS011;8269;50.990;4.494;2022-12-18T11:23:05;26.07;;;17.13;;
16320;SDS011;8269;50.990;4.494;2022-12-18T11:25:39;24.37;;;17.47;;
16320;SDS011;8269;50.990;4.494;2022-12-18T11:36:36;25.70;;;19.33;;
16320;SDS011;8269;50.990;4.494;2022-12-18T11:39:18;25.33;;;18.30;;
16320;SDS011;8269;50.990;4.494;2022-12-18T11:42:21;24.93;;;18.33;;
16320;SDS011;8269;50.990;4.494;2022-12-18T11:45:28;25.77;;;18.63;;
16320;SDS011;8269;50.990;4.494;2022-12-18T11:50:31;25.10;;;18.83;;
16320;SDS011;8269;50.990;4.494;2022-12-18T11:53:11;24.87;;;18.70;;
16320;SDS011;8269;50.990;4.494;2022-12-18T11:56:32;24.30;;;18.57;;
16320;SDS011;8269;50.990;4.494;2022-12-18T11:58:51;23.60;;;17.40;;
16320;SDS011;8269;50.990;4.494;2022-12-18T12:18:21;22.27;;;15.97;;
16320;SDS011;8269;50.990;4.494;2022-12-18T12:34:47;22.97;;;16.93;;
16320;SDS011;8269;50.990;4.494;2022-12-18T12:37:54;22.90;;;16.77;;
16320;SDS011;8269;50.990;4.494;2022-12-18T12:40:47;22.63;;;17.07;;
16320;SDS011;8269;50.990;4.494;2022-12-18T12:43:28;23.90;;;17.57;;
16320;SDS011;8269;50.990;4.494;2022-12-18T12:46:06;23.37;;;17.20;;
16320;SDS011;8269;50.990;4.494;2022-12-18T12:48:41;21.97;;;16.87;;
16320;SDS011;8269;50.990;4.494;2022-12-18T12:51:19;24.23;;;17.13;;
16320;SDS011;8269;50.990;4.494;2022-12-18T12:53:49;23.37;;;17.60;;
16320;SDS011;8269;50.990;4.494;2022-12-18T12:56:22;24.77;;;17.50;;
16320;SDS011;8269;50.990;4.494;2022-12-18T12:58:57;24.50;;;18.40;;
16320;SDS011;8269;50.990;4.494;2022-12-18T13:04:47;30.30;;;19.37;;
16320;SDS011;8269;50.990;4.494;2022-12-18T13:15:37;24.40;;;18.00;;
16320;SDS011;8269;50.990;4.494;2022-12-18T13:18:20;25.53;;;18.67;;
16320;SDS011;8269;50.990;4.494;2022-12-18T13:23:43;25.67;;;18.47;;
16320;SDS011;8269;50.990;4.494;2022-12-18T13:28:50;25.33;;;19.20;;
16320;SDS011;8269;50.990;4.494;2022-12-18T13:36:47;26.80;;;20.33;;
16320;SDS011;8269;50.990;4.494;2022-12-18T13:39:21;29.97;;;21.77;;
16320;SDS011;8269;50.990;4.494;2022-12-18T13:47:30;27.50;;;20.43;;
16320;SDS011;8269;50.990;4.494;2022-12-18T13:50:09;28.80;;;20.43;;
16320;SDS011;8269;50.990;4.494;2022-12-18T13:52:48;27.93;;;20.03;;
16320;SDS011;8269;50.990;4.494;2022-12-18T13:55:19;27.83;;;20.70;;
16320;SDS011;8269;50.990;4.494;2022-12-18T13:57:45;26.87;;;20.53;;
16320;SDS011;8269;50.990;4.494;2022-12-18T14:03:16;35.37;;;25.60;;
16320;SDS011;8269;50.990;4.494;2022-12-18T14:06:21;31.87;;;23.13;;
16320;SDS011;8269;50.990;4.494;2022-12-18T14:08:44;33.93;;;24.23;;
16320;SDS011;8269;50.990;4.494;2022-12-18T14:11:20;26.30;;;21.60;;
16320;SDS011;8269;50.990;4.494;2022-12-18T14:13:48;29.60;;;21.60;;
16320;SDS011;8269;50.990;4.494;2022-12-18T14:16:15;27.30;;;20.07;;
16320;SDS011;8269;50.990;4.494;2022-12-18T14:21:19;31.13;;;22.10;;
16320;SDS011;8269;50.990;4.494;2022-12-18T14:24:03;30.17;;;21.13;;
16320;SDS011;8269;50.990;4.494;2022-12-18T14:26:42;27.57;;;20.77;;
16320;SDS011;8269;50.990;4.494;2022-12-18T14:29:19;29.27;;;21.30;;
16320;SDS011;8269;50.990;4.494;2022-12-18T14:34:41;29.47;;;21.90;;
16320;SDS011;8269;50.990;4.494;2022-12-18T14:37:09;28.80;;;20.87;;
16320;SDS011;8269;50.990;4.494;2022-12-18T14:39:36;30.60;;;21.33;;
16320;SDS011;8269;50.990;4.494;2022-12-18T14:42:01;30.40;;;22.27;;
16320;SDS011;8269;50.990;4.494;2022-12-18T14:44:27;32.30;;;21.53;;
16320;SDS011;8269;50.990;4.494;2022-12-18T14:46:55;34.47;;;24.40;;
16320;SDS011;8269;50.990;4.494;2022-12-18T14:49:31;31.47;;;23.60;;
16320;SDS011;8269;50.990;4.494;2022-12-18T14:52:06;34.10;;;24.17;;
16320;SDS011;8269;50.990;4.494;2022-12-18T14:54:45;31.77;;;22.47;;
16320;SDS011;8269;50.990;4.494;2022-12-18T14:57:22;40.30;;;27.93;;
16320;SDS011;8269;50.990;4.494;2022-12-18T14:59:50;34.23;;;22.90;;
16320;SDS011;8269;50.990;4.494;2022-12-18T15:02:21;32.60;;;22.40;;
16320;SDS011;8269;50.990;4.494;2022-12-18T15:04:59;30.83;;;21.20;;
16320;SDS011;8269;50.990;4.494;2022-12-18T15:07:26;37.13;;;24.70;;
16320;SDS011;8269;50.990;4.494;2022-12-18T15:10:15;35.27;;;23.30;;
16320;SDS011;8269;50.990;4.494;2022-12-18T15:12:44;32.83;;;22.80;;
16320;SDS011;8269;50.990;4.494;2022-12-18T15:16:04;36.93;;;24.70;;
16320;SDS011;8269;50.990;4.494;2022-12-18T15:18:14;33.17;;;21.37;;
16320;SDS011;8269;50.990;4.494;2022-12-18T15:20:57;34.37;;;22.80;;
16320;SDS011;8269;50.990;4.494;2022-12-18T15:23:35;38.87;;;24.50;;
16320;SDS011;8269;50.990;4.494;2022-12-18T15:26:13;35.07;;;23.90;;
16320;SDS011;8269;50.990;4.494;2022-12-18T15:28:56;33.87;;;22.63;;
16320;SDS011;8269;50.990;4.494;2022-12-18T15:31:29;33.67;;;22.17;;
16320;SDS011;8269;50.990;4.494;2022-12-18T15:34:24;35.70;;;23.13;;
16320;SDS011;8269;50.990;4.494;2022-12-18T15:36:51;32.80;;;22.13;;
16320;SDS011;8269;50.990;4.494;2022-12-18T15:39:17;32.40;;;21.63;;
16320;SDS011;8269;50.990;4.494;2022-12-18T15:41:42;34.23;;;22.47;;
16320;SDS011;8269;50.990;4.494;2022-12-18T15:44:28;34.57;;;22.80;;
16320;SDS011;8269;50.990;4.494;2022-12-18T15:46:55;33.87;;;21.93;;
16320;SDS011;8269;50.990;4.494;2022-12-18T15:49:22;32.53;;;21.00;;
16320;SDS011;8269;50.990;4.494;2022-12-18T15:51:50;34.03;;;21.93;;
16320;SDS011;8269;50.990;4.494;2022-12-18T15:54:19;33.00;;;21.63;;
16320;SDS011;8269;50.990;4.494;2022-12-18T15:57:05;32.90;;;22.00;;
16320;SDS011;8269;50.990;4.494;2022-12-18T15:59:48;34.43;;;22.47;;
16320;SDS011;8269;50.990;4.494;2022-12-18T16:02:18;34.50;;;23.30;;
16320;SDS011;8269;50.990;4.494;2022-12-18T16:04:45;31.60;;;22.33;;
16320;SDS011;8269;50.990;4.494;2022-12-18T16:07:11;35.40;;;22.53;;
16320;SDS011;8269;50.990;4.494;2022-12-18T16:09:37;31.57;;;22.20;;
16320;SDS011;8269;50.990;4.494;2022-12-18T16:12:04;33.57;;;21.43;;
16320;SDS011;8269;50.990;4.494;2022-12-18T16:14:30;34.00;;;21.07;;
16320;SDS011;8269;50.990;4.494;2022-12-18T16:17:03;33.73;;;23.70;;
16320;SDS011;8269;50.990;4.494;2022-12-18T16:19:45;33.53;;;23.83;;
16320;SDS011;8269;50.990;4.494;2022-12-18T16:22:15;33.63;;;22.93;;
16320;SDS011;8269;50.990;4.494;2022-12-18T16:24:51;34.67;;;23.00;;
16320;SDS011;8269;50.990;4.494;2022-12-18T16:27:18;33.40;;;21.30;;
16320;SDS011;8269;50.990;4.494;2022-12-18T16:29:43;36.87;;;23.83;;
16320;SDS011;8269;50.990;4.494;2022-12-18T16:32:16;35.37;;;23.60;;
16320;SDS011;8269;50.990;4.494;2022-12-18T16:34:52;31.93;;;23.27;;
16320;SDS011;8269;50.990;4.494;2022-12-18T16:37:17;33.93;;;21.77;;
16320;SDS011;8269;50.990;4.494;2022-12-18T16:39:43;35.53;;;23.50;;
16320;SDS011;8269;50.990;4.494;2022-12-18T16:42:17;33.80;;;21.80;;
16320;SDS011;8269;50.990;4.494;2022-12-18T16:44:44;35.03;;;24.60;;
16320;SDS011;8269;50.990;4.494;2022-12-18T16:47:11;31.37;;;19.57;;
16320;SDS011;8269;50.990;4.494;2022-12-18T16:49:38;34.17;;;23.40;;
16320;SDS011;8269;50.990;4.494;2022-12-18T16:52:04;35.43;;;22.80;;
16320;SDS011;8269;50.990;4.494;2022-12-18T16:54:30;36.00;;;21.67;;
16320;SDS011;8269;50.990;4.494;2022-12-18T16:56:57;32.77;;;22.43;;
16320;SDS011;8269;50.990;4.494;2022-12-18T16:59:24;34.03;;;22.03;;
16320;SDS011;8269;50.990;4.494;2022-12-18T17:01:50;33.70;;;22.17;;
16320;SDS011;8269;50.990;4.494;2022-12-18T17:04:16;33.97;;;22.10;;
16320;SDS011;8269;50.990;4.494;2022-12-18T17:06:43;33.83;;;22.30;;
16320;SDS011;8269;50.990;4.494;2022-12-18T17:09:12;34.73;;;22.20;;
16320;SDS011;8269;50.990;4.494;2022-12-18T17:11:40;35.83;;;22.83;;
16320;SDS011;8269;50.990;4.494;2022-12-18T17:14:07;33.77;;;22.70;;
16320;SDS011;8269;50.990;4.494;2022-12-18T17:16:34;33.83;;;22.20;;